createdAt,value
2019-05-10T00:00:22.567Z,100913.61
2019-05-10T00:03:12.643Z,100906.61
2019-05-10T00:06:02.291Z,100905.20
2019-05-10T00:08:48.024Z,100912.09
2019-05-10T00:11:41.684Z,100909.20
2019-05-10T00:14:33.218Z,100908.16
2019-05-10T00:17:12.939Z,100909.92
2019-05-10T00:19:45.234Z,100907.81
2019-05-10T00:22:18.226Z,100908.30
2019-05-10T00:25:03.161Z,100912.73
2019-05-10T00:27:24.317Z,100919.14
2019-05-10T00:29:56.712Z,100918.81
2019-05-10T00:32:28.890Z,100921.27
2019-05-10T00:35:03.350Z,100916.82
2019-05-10T00:37:35.594Z,100916.82
2019-05-10T00:40:09.166Z,100920.22
2019-05-10T00:42:41.368Z,100914.73
2019-05-10T00:45:13.943Z,100915.53
2019-05-10T00:47:46.513Z,100913.53
2019-05-10T00:50:18.912Z,100915.97
2019-05-10T00:52:51.229Z,100911.72
2019-05-10T00:55:23.835Z,100913.11
2019-05-10T00:57:56.422Z,100910.06
2019-05-10T01:00:28.763Z,100910.45
2019-05-10T01:03:04.629Z,100913.88
2019-05-10T01:05:39.085Z,100915.61
2019-05-10T01:08:11.388Z,100919.30
2019-05-10T01:10:43.601Z,100922.05
2019-05-10T01:13:15.905Z,100928.42
2019-05-10T01:15:48.274Z,100930.28
2019-05-10T01:18:20.471Z,100924.20
2019-05-10T01:20:52.713Z,100926.16
2019-05-10T01:23:24.867Z,100928.15
2019-05-10T01:25:59.744Z,100931.52
2019-05-10T01:28:31.894Z,100928.39
2019-05-10T01:31:04.417Z,100927.72
2019-05-10T01:33:36.921Z,100939.86
2019-05-10T01:36:09.418Z,100940.83
2019-05-10T01:38:42.167Z,100941.28
2019-05-10T01:41:14.374Z,100947.12
2019-05-10T01:43:46.669Z,100947.84
2019-05-10T01:46:18.837Z,100953.93
2019-05-10T01:48:51.167Z,100956.38
2019-05-10T01:51:23.324Z,100958.61
2019-05-10T01:53:55.533Z,100959.91
2019-05-10T01:56:27.922Z,100957.67
2019-05-10T01:59:00.223Z,100959.06
2019-05-10T02:01:33.183Z,100954.73
2019-05-10T02:04:05.566Z,100956.24
2019-05-10T02:06:37.809Z,100960.31
2019-05-10T02:09:10.754Z,100964.02
2019-05-10T02:11:42.912Z,100963.53
2019-05-10T02:14:14.931Z,100972.52
2019-05-10T02:16:47.236Z,100978.78
2019-05-10T02:19:19.478Z,100977.49
2019-05-10T02:21:51.723Z,100984.11
2019-05-10T02:24:24.125Z,100985.69
2019-05-10T02:26:56.454Z,100988.94
2019-05-10T02:29:28.746Z,100991.00
2019-05-10T02:32:00.959Z,100994.00
2019-05-10T02:34:33.191Z,100992.11
2019-05-10T02:37:05.631Z,100993.86
2019-05-10T02:39:37.777Z,100992.46
2019-05-10T02:42:10.210Z,101007.25
2019-05-10T02:44:42.537Z,101007.50
2019-05-10T02:47:14.728Z,101006.91
2019-05-10T02:49:46.981Z,101008.55
2019-05-10T02:52:19.399Z,101018.34
2019-05-10T02:54:51.525Z,101019.84
2019-05-10T02:57:24.816Z,101020.19
2019-05-10T02:59:58.562Z,101022.25
2019-05-10T03:02:32.071Z,101024.06
2019-05-10T03:05:05.606Z,101017.48
2019-05-10T03:07:40.831Z,101024.79
2019-05-10T03:10:14.367Z,101024.64
2019-05-10T03:12:47.788Z,101032.54
2019-05-10T03:15:20.215Z,101038.48
2019-05-10T03:17:56.816Z,101038.82
2019-05-10T03:20:29.241Z,101049.76
2019-05-10T03:23:02.303Z,101053.46
2019-05-10T03:25:34.510Z,101051.01
2019-05-10T03:28:06.811Z,101049.12
2019-05-10T03:30:39.645Z,101052.47
2019-05-10T03:33:11.828Z,101051.52
2019-05-10T03:35:44.238Z,101046.02
2019-05-10T03:38:16.483Z,101048.57
2019-05-10T03:40:49.304Z,101048.33
2019-05-10T03:43:21.367Z,101053.33
2019-05-10T03:45:53.378Z,101055.22
2019-05-10T03:48:25.729Z,101059.91
2019-05-10T03:50:57.909Z,101056.52
2019-05-10T03:53:30.348Z,101052.81
2019-05-10T03:56:02.671Z,101056.36
2019-05-10T04:01:05.482Z,101064.30
2019-05-10T04:03:37.796Z,101063.39
2019-05-10T04:06:10.067Z,101061.34
2019-05-10T04:08:42.864Z,101058.10
2019-05-10T04:11:15.100Z,101058.34
2019-05-10T04:13:47.420Z,101056.22
2019-05-10T04:16:19.641Z,101048.81
2019-05-10T04:18:51.996Z,101050.95
2019-05-10T04:21:24.446Z,101053.65
2019-05-10T04:23:56.940Z,101051.66
2019-05-10T04:26:29.486Z,101051.00
2019-05-10T04:29:04.807Z,101057.33
2019-05-10T04:31:39.224Z,101057.23
2019-05-10T04:34:11.857Z,101061.01
2019-05-10T04:36:44.247Z,101053.00
2019-05-10T04:39:17.122Z,101052.45
2019-05-10T04:41:49.206Z,101051.36
2019-05-10T04:44:21.461Z,101052.70
2019-05-10T04:46:53.885Z,101057.77
2019-05-10T04:49:26.483Z,101055.59
2019-05-10T04:51:58.656Z,101053.66
2019-05-10T04:54:30.894Z,101051.73
2019-05-10T04:57:03.084Z,101049.07
2019-05-10T04:59:35.411Z,101055.95
2019-05-10T05:02:07.747Z,101050.14
2019-05-10T05:04:40.230Z,101047.00
2019-05-10T05:07:13.536Z,101046.68
2019-05-10T05:09:45.786Z,101042.63
2019-05-10T05:12:17.989Z,101043.97
2019-05-10T05:14:50.227Z,101043.46
2019-05-10T05:17:22.457Z,101043.55
2019-05-10T05:19:54.816Z,101033.74
2019-05-10T05:22:26.984Z,101030.42
2019-05-10T05:25:01.142Z,101033.42
2019-05-10T05:27:33.076Z,101030.27
2019-05-10T05:30:05.378Z,101021.94
2019-05-10T05:32:38.447Z,101030.59
2019-05-10T05:35:14.846Z,101027.02
2019-05-10T05:37:45.637Z,101023.23
2019-05-10T05:40:18.606Z,101022.81
2019-05-10T05:42:51.127Z,101020.79
2019-05-10T05:45:28.202Z,101019.16
2019-05-10T05:47:57.573Z,101012.45
2019-05-10T05:50:29.816Z,101011.00
2019-05-10T05:53:02.053Z,101012.42
2019-05-10T05:55:34.253Z,101009.38
2019-05-10T05:58:07.282Z,101016.54
2019-05-10T06:00:44.621Z,101017.31
2019-05-10T06:03:19.684Z,101020.97
2019-05-10T06:05:47.895Z,101022.19
2019-05-10T06:08:24.987Z,101028.47
2019-05-10T06:10:57.794Z,101027.60
2019-05-10T06:13:30.194Z,101018.92
2019-05-10T06:16:06.696Z,101025.72
2019-05-10T06:18:41.474Z,101026.38
2019-05-10T06:21:10.389Z,101025.56
2019-05-10T06:23:45.954Z,101025.47
2019-05-10T06:26:26.481Z,101026.95
2019-05-10T06:28:59.747Z,101031.03
2019-05-10T06:31:26.871Z,101039.56
2019-05-10T06:33:59.936Z,101045.69
2019-05-10T06:36:32.534Z,101044.94
2019-05-10T06:39:06.191Z,101048.09
2019-05-10T06:41:38.613Z,101049.45
2019-05-10T06:44:11.050Z,101045.18
2019-05-10T06:46:43.210Z,101042.16
2019-05-10T06:49:15.410Z,101044.46
2019-05-10T06:51:49.079Z,101048.63
2019-05-10T06:54:21.603Z,101055.61
2019-05-10T06:56:53.912Z,101054.97
2019-05-10T06:59:26.359Z,101060.62
2019-05-10T07:01:58.629Z,101050.83
2019-05-10T07:04:35.084Z,101055.21
2019-05-10T07:07:10.315Z,101061.66
2019-05-10T07:10:01.798Z,101063.63
2019-05-10T07:12:15.420Z,101062.40
2019-05-10T07:14:47.555Z,101063.17
2019-05-10T07:17:19.685Z,101063.47
2019-05-10T07:19:54.923Z,101062.21
2019-05-10T07:22:26.980Z,101070.09
2019-05-10T07:25:04.247Z,101064.24
2019-05-10T07:27:36.528Z,101056.98
2019-05-10T07:30:08.864Z,101064.67
2019-05-10T07:32:41.145Z,101063.47
2019-05-10T07:35:13.368Z,101070.22
2019-05-10T07:37:47.586Z,101066.41
2019-05-10T07:40:19.842Z,101072.31
2019-05-10T07:42:52.015Z,101075.36
2019-05-10T07:45:25.715Z,101075.05
2019-05-10T07:48:02.507Z,101073.39
2019-05-10T07:50:32.258Z,101074.47
2019-05-10T07:53:04.435Z,101067.42
2019-05-10T07:55:36.671Z,101067.69
2019-05-10T07:58:08.983Z,101068.31
2019-05-10T08:00:44.426Z,101063.09
2019-05-10T08:03:17.670Z,101060.87
2019-05-10T08:05:55.029Z,101059.44
2019-05-10T08:08:23.659Z,101059.59
2019-05-10T08:10:55.966Z,101061.75
2019-05-10T08:13:28.536Z,101056.14
2019-05-10T08:16:05.421Z,101055.15
2019-05-10T08:18:35.508Z,101059.16
2019-05-10T08:21:18.776Z,101059.33
2019-05-10T08:23:43.834Z,101050.07
2019-05-10T08:26:20.257Z,101054.91
2019-05-10T08:28:52.337Z,101048.47
2019-05-10T08:31:26.256Z,101044.41
2019-05-10T08:33:58.972Z,101040.28
2019-05-10T08:36:32.156Z,101037.86
2019-05-10T08:39:10.719Z,101042.80
2019-05-10T08:41:42.888Z,101034.61
2019-05-10T08:44:19.528Z,101042.53
2019-05-10T08:46:49.010Z,101040.70
2019-05-10T08:49:25.266Z,101039.76
2019-05-10T08:51:55.849Z,101036.02
2019-05-10T08:54:35.391Z,101029.70
2019-05-10T08:57:07.957Z,101024.94
2019-05-10T08:59:42.624Z,101026.08
2019-05-10T09:02:14.727Z,101022.34
2019-05-10T09:04:50.224Z,101020.41
2019-05-10T09:07:23.114Z,101022.89
2019-05-10T09:09:54.930Z,101015.52
2019-05-10T09:12:29.476Z,101017.59
2019-05-10T09:15:06.520Z,101017.30
2019-05-10T09:17:34.963Z,101012.73
2019-05-10T09:20:11.988Z,101007.19
2019-05-10T09:22:42.429Z,101008.11
2019-05-10T09:25:14.896Z,101008.62
2019-05-10T09:27:47.293Z,101008.41
2019-05-10T09:30:35.523Z,101018.16
2019-05-10T09:33:08.842Z,101011.84
2019-05-10T09:35:46.860Z,101008.07
2019-05-10T09:38:15.856Z,101020.78
2019-05-10T09:40:52.755Z,101020.26
2019-05-10T09:43:24.246Z,101014.44
2019-05-10T09:45:55.648Z,101020.92
2019-05-10T09:48:32.996Z,101015.33
2019-05-10T09:51:04.574Z,101020.65
2019-05-10T09:53:38.342Z,101023.47
2019-05-10T09:56:10.732Z,101019.34
2019-05-10T09:58:43.261Z,101016.59
2019-05-10T10:01:20.743Z,101020.84
2019-05-10T10:03:49.638Z,101008.30
2019-05-10T10:06:21.828Z,101004.36
2019-05-10T10:08:54.319Z,101003.02
2019-05-10T10:11:27.814Z,101001.33
2019-05-10T10:14:02.121Z,100997.42
2019-05-10T10:16:34.292Z,101004.77
2019-05-10T10:19:07.203Z,101001.31
2019-05-10T10:21:39.907Z,101000.86
2019-05-10T10:24:17.350Z,101007.41
2019-05-10T10:26:48.192Z,101008.77
2019-05-10T10:29:20.510Z,101004.66
2019-05-10T10:31:55.729Z,100999.13
2019-05-10T10:34:27.270Z,101011.53
2019-05-10T10:36:59.676Z,101017.25
2019-05-10T10:39:31.863Z,101019.51
2019-05-10T10:42:08.829Z,101019.16
2019-05-10T10:44:38.048Z,101017.84
2019-05-10T10:47:10.239Z,101010.20
2019-05-10T10:49:42.484Z,101013.28
2019-05-10T10:52:17.096Z,101020.11
2019-05-10T10:55:39.349Z,101018.86
2019-05-10T10:58:09.791Z,101023.31
2019-05-10T11:00:42.070Z,101016.13
2019-05-10T11:03:14.223Z,101015.84
2019-05-10T11:05:46.480Z,101029.40
2019-05-10T11:08:18.764Z,101014.91
2019-05-10T11:10:51.090Z,101013.50
2019-05-10T11:13:40.626Z,101017.45
2019-05-10T11:15:59.104Z,101019.31
2019-05-10T11:18:32.137Z,101014.41
2019-05-10T11:21:04.588Z,101021.61
2019-05-10T11:23:39.207Z,101011.90
2019-05-10T11:26:11.078Z,101014.55
2019-05-10T11:28:44.481Z,101004.68
2019-05-10T11:31:17.054Z,101013.14
2019-05-10T11:33:55.371Z,101004.23
2019-05-10T11:36:23.186Z,100994.16
2019-05-10T11:38:58.545Z,100996.98
2019-05-10T11:41:31.280Z,100995.12
2019-05-10T11:44:05.441Z,100991.33
2019-05-10T11:46:37.041Z,101000.40
2019-05-10T11:49:10.665Z,100996.17
2019-05-10T11:51:47.946Z,100986.20
2019-05-10T11:54:16.910Z,100989.63
2019-05-10T11:56:51.964Z,100982.14
2019-05-10T11:59:27.436Z,100980.13
2019-05-10T12:01:59.388Z,100976.83
2019-05-10T12:04:38.815Z,100973.30
2019-05-10T12:07:08.442Z,100973.33
2019-05-10T12:09:41.857Z,100973.90
2019-05-10T12:12:12.683Z,100970.55
2019-05-10T12:14:46.735Z,100964.11
2019-05-10T12:17:18.193Z,100968.64
2019-05-10T12:19:56.084Z,100965.47
2019-05-10T12:22:31.958Z,100960.83
2019-05-10T12:26:05.677Z,100961.83
2019-05-10T12:27:44.204Z,100965.35
2019-05-10T12:30:06.339Z,100968.08
2019-05-10T12:32:54.484Z,100971.73
2019-05-10T12:35:12.467Z,100976.98
2019-05-10T12:37:48.897Z,100969.94
2019-05-10T12:40:18.527Z,100971.19
2019-05-10T12:42:50.646Z,100965.55
2019-05-10T12:45:23.502Z,100965.42
2019-05-10T12:47:55.661Z,100962.66
2019-05-10T12:50:28.021Z,100969.36
2019-05-10T12:53:07.439Z,100974.25
2019-05-10T12:55:34.287Z,100964.70
2019-05-10T12:58:06.609Z,100961.13
2019-05-10T13:00:38.912Z,100958.30
2019-05-10T13:03:13.179Z,100965.36
2019-05-10T13:05:52.432Z,100964.00
2019-05-10T13:08:19.131Z,100962.94
2019-05-10T13:10:55.013Z,100960.50
2019-05-10T13:13:30.109Z,100961.08
2019-05-10T13:16:03.423Z,100961.46
2019-05-10T13:18:49.770Z,100957.16
2019-05-10T13:21:20.037Z,100948.18
2019-05-10T13:23:42.764Z,100958.70
2019-05-10T13:26:15.124Z,100958.31
2019-05-10T13:28:47.540Z,100949.11
2019-05-10T13:31:20.242Z,100957.62
2019-05-10T13:33:52.919Z,100950.62
2019-05-10T13:36:30.674Z,100963.83
2019-05-10T13:38:59.381Z,100962.53
2019-05-10T13:41:32.855Z,100958.84
2019-05-10T13:44:06.376Z,100959.94
2019-05-10T13:46:39.059Z,100969.30
2019-05-10T13:49:11.699Z,100973.21
2019-05-10T13:51:44.228Z,100973.47
2019-05-10T13:54:17.735Z,100967.76
2019-05-10T13:56:54.975Z,100967.76
2019-05-10T13:59:25.134Z,100970.58
2019-05-10T14:01:57.316Z,100971.18
2019-05-10T14:04:33.927Z,100975.89
2019-05-10T14:07:03.880Z,100964.92
2019-05-10T14:09:36.247Z,100975.41
2019-05-10T14:12:08.456Z,100977.20
2019-05-10T14:14:40.634Z,100967.98
2019-05-10T14:17:12.792Z,100978.69
2019-05-10T14:19:45.034Z,100971.57
2019-05-10T14:22:17.386Z,100968.58
2019-05-10T14:24:53.247Z,100969.29
2019-05-10T14:27:23.464Z,100966.73
2019-05-10T14:29:55.818Z,100972.17
2019-05-10T14:32:28.473Z,100970.77
2019-05-10T14:35:00.651Z,100961.78
2019-05-10T14:37:32.932Z,100960.98
2019-05-10T14:40:05.275Z,100962.07
2019-05-10T14:42:37.298Z,100964.32
2019-05-10T14:45:10.227Z,100965.39
2019-05-10T14:47:47.838Z,100963.89
2019-05-10T14:50:19.458Z,100961.45
2019-05-10T14:52:50.890Z,100954.77
2019-05-10T14:55:28.163Z,100958.87
2019-05-10T14:57:57.301Z,100955.27
2019-05-10T15:00:29.704Z,100961.39
2019-05-10T15:03:03.705Z,100966.78
2019-05-10T15:05:36.716Z,100967.58
2019-05-10T15:08:08.994Z,100966.64
2019-05-10T15:10:41.823Z,100965.11
2019-05-10T15:13:14.206Z,100981.77
2019-05-10T15:15:47.142Z,100976.48
2019-05-10T15:18:28.120Z,100965.38
2019-05-10T15:21:05.906Z,100971.70
2019-05-10T15:23:38.137Z,100975.78
2019-05-10T15:26:12.020Z,100990.19
2019-05-10T15:28:44.497Z,100988.42
2019-05-10T15:31:17.027Z,100985.84
2019-05-10T15:33:49.374Z,100989.96
2019-05-10T15:36:23.667Z,100986.88
2019-05-10T15:38:55.565Z,100988.89
2019-05-10T15:41:28.225Z,100984.08
2019-05-10T15:44:00.715Z,100984.44
2019-05-10T15:46:39.330Z,100984.58
2019-05-10T15:49:07.091Z,100981.89
2019-05-10T15:51:39.334Z,100983.06
2019-05-10T15:54:11.653Z,100982.23
2019-05-10T15:56:44.215Z,100979.19
2019-05-10T15:59:19.308Z,100981.77
2019-05-10T16:01:50.652Z,100985.30
2019-05-10T16:04:22.707Z,100981.09
2019-05-10T16:06:54.945Z,100976.90
2019-05-10T16:09:28.397Z,100981.58
2019-05-10T16:12:01.920Z,100982.07
2019-05-10T16:14:39.202Z,100982.30
2019-05-10T16:17:10.215Z,100983.36
2019-05-10T16:19:42.355Z,100984.66
2019-05-10T16:22:14.575Z,100988.16
2019-05-10T16:24:46.774Z,100991.45
2019-05-10T16:27:19.022Z,100994.15
2019-05-10T16:29:51.594Z,100996.02
2019-05-10T16:32:29.230Z,100991.45
2019-05-10T16:34:58.014Z,100993.78
2019-05-10T16:37:30.370Z,100993.31
2019-05-10T16:40:02.466Z,101002.42
2019-05-10T16:42:35.997Z,101005.11
2019-05-10T16:45:09.702Z,101001.00
2019-05-10T16:47:41.894Z,101003.00
2019-05-10T16:50:14.454Z,101005.33
2019-05-10T16:52:46.687Z,101012.70
2019-05-10T16:55:18.781Z,101002.65
2019-05-10T16:57:50.963Z,100998.77
2019-05-10T17:00:23.594Z,100990.48
2019-05-10T17:02:55.838Z,100992.00
2019-05-10T17:05:27.996Z,100990.59
2019-05-10T17:08:00.354Z,100993.77
2019-05-10T17:10:34.446Z,100984.27
2019-05-10T17:13:06.738Z,100989.08
2019-05-10T17:15:39.828Z,100989.20
2019-05-10T17:18:17.416Z,100998.42
2019-05-10T17:20:50.785Z,100994.81
2019-05-10T17:23:20.521Z,101002.16
2019-05-10T17:25:52.861Z,100997.95
2019-05-10T17:28:29.541Z,100994.34
2019-05-10T17:31:00.009Z,100997.27
2019-05-10T17:33:36.625Z,101010.22
2019-05-10T17:36:08.696Z,101011.38
2019-05-10T17:38:41.331Z,100997.47
2019-05-10T17:41:13.905Z,101011.50
2019-05-10T17:43:46.343Z,101012.34
2019-05-10T17:46:20.653Z,101015.14
2019-05-10T17:48:52.289Z,101012.66
2019-05-10T17:51:24.568Z,101015.23
2019-05-10T17:54:01.719Z,101018.27
2019-05-10T17:56:32.830Z,101018.27
2019-05-10T17:59:05.939Z,101025.28
2019-05-10T18:01:38.522Z,101030.89
2019-05-10T18:04:10.971Z,101026.81
2019-05-10T18:06:43.535Z,101021.31
2019-05-10T18:09:15.804Z,101023.28
2019-05-10T18:11:48.036Z,101025.29
2019-05-10T18:14:20.286Z,101030.06
2019-05-10T18:16:52.371Z,101033.46
2019-05-10T18:19:26.474Z,101035.42
2019-05-10T18:22:00.849Z,101027.37
2019-05-10T18:24:36.324Z,101024.33
2019-05-10T18:27:06.493Z,101029.70
2019-05-10T18:29:38.950Z,101031.70
2019-05-10T18:32:12.063Z,101033.66
2019-05-10T18:34:47.257Z,101027.25
2019-05-10T18:37:21.671Z,101030.98
2019-05-10T18:39:52.996Z,101027.02
2019-05-10T18:42:27.968Z,101028.66
2019-05-10T18:45:00.174Z,101031.46
2019-05-10T18:47:32.627Z,101024.45
2019-05-10T18:50:04.990Z,101026.66
2019-05-10T18:52:37.247Z,101030.30
2019-05-10T18:55:10.043Z,101028.06
2019-05-10T18:57:45.290Z,101026.89
2019-05-10T19:00:17.517Z,101024.45
2019-05-10T19:02:55.346Z,101032.27
2019-05-10T19:05:30.895Z,101038.11
2019-05-10T19:08:04.174Z,101034.27
2019-05-10T19:10:32.469Z,101034.63
2019-05-10T19:13:05.882Z,101038.59
2019-05-10T19:15:39.294Z,101041.72
2019-05-10T19:18:11.732Z,101036.23
2019-05-10T19:20:48.889Z,101043.23
2019-05-10T19:23:19.586Z,101042.44
2019-05-10T19:25:53.831Z,101034.83
2019-05-10T19:28:28.346Z,101034.47
2019-05-10T19:31:00.482Z,101036.95
2019-05-10T19:33:36.326Z,101033.06
2019-05-10T19:36:13.175Z,101030.50
2019-05-10T19:38:42.321Z,101031.66
2019-05-10T19:41:20.205Z,101035.66
2019-05-10T19:43:50.143Z,101040.91
2019-05-10T19:46:22.742Z,101038.11
2019-05-10T19:48:55.098Z,101037.27
2019-05-10T19:51:27.232Z,101037.63
2019-05-10T19:53:59.452Z,101032.70
2019-05-10T19:56:36.919Z,101038.11
2019-05-10T19:59:11.549Z,101036.70
2019-05-10T20:01:40.039Z,101043.71
2019-05-10T20:04:12.133Z,101039.71
2019-05-10T20:06:44.378Z,101039.71
2019-05-10T20:09:16.423Z,101035.18
2019-05-10T20:11:48.581Z,101033.42
2019-05-10T20:14:20.840Z,101037.88
2019-05-10T20:16:53.539Z,101032.50
2019-05-10T20:19:25.942Z,101030.50
2019-05-10T20:21:58.205Z,101040.91
2019-05-10T20:24:30.474Z,101037.27
2019-05-10T20:27:02.972Z,101031.09
2019-05-10T20:29:35.516Z,101033.66
2019-05-10T20:32:07.767Z,101030.27
2019-05-10T20:34:40.222Z,101025.25
2019-05-10T20:37:12.342Z,101020.69
2019-05-10T20:39:44.597Z,101017.31
2019-05-10T20:42:16.957Z,101013.44
2019-05-10T20:45:04.822Z,101010.19
2019-05-10T20:47:24.116Z,101013.08
2019-05-10T20:49:56.210Z,101018.48
2019-05-10T20:52:28.341Z,101016.00
2019-05-10T20:55:00.580Z,101010.15
2019-05-10T20:57:33.091Z,101005.14
2019-05-10T21:00:05.434Z,101004.90
2019-05-10T21:02:37.649Z,101005.14
2019-05-10T21:05:10.341Z,100996.49
2019-05-10T21:07:42.495Z,101003.73
2019-05-10T21:10:14.675Z,100996.73
2019-05-10T21:12:47.034Z,100996.49
2019-05-10T21:15:19.587Z,100990.05
2019-05-10T21:17:51.737Z,100993.69
2019-05-10T21:20:23.958Z,100995.09
2019-05-10T21:22:56.165Z,100994.84
2019-05-10T21:25:29.179Z,100993.20
2019-05-10T21:28:01.754Z,100989.00
2019-05-10T21:30:34.592Z,100988.20
2019-05-10T21:33:06.739Z,100989.24
2019-05-10T21:35:39.249Z,100988.44
2019-05-10T21:38:11.632Z,100985.63
2019-05-10T21:40:43.885Z,100983.39
2019-05-10T21:43:16.324Z,100989.84
2019-05-10T21:45:48.537Z,100987.03
2019-05-10T21:48:20.949Z,100983.39
2019-05-10T21:50:53.170Z,100981.19
2019-05-10T21:53:25.377Z,100978.15
2019-05-10T21:55:57.591Z,100978.47
2019-05-10T21:58:29.887Z,100975.46
2019-05-10T22:01:02.457Z,100970.15
2019-05-10T22:03:34.800Z,100969.34
2019-05-10T22:06:07.114Z,100972.71
2019-05-10T22:08:48.795Z,100973.42
2019-05-10T22:11:13.119Z,100971.19
2019-05-10T22:13:45.459Z,100966.18
2019-05-10T22:16:17.682Z,100963.70
2019-05-10T22:18:59.149Z,100957.86
2019-05-10T22:21:31.385Z,100957.41
2019-05-10T22:24:03.623Z,100955.77
2019-05-10T22:26:35.817Z,100954.37
2019-05-10T22:29:08.186Z,100951.89
2019-05-10T22:31:40.461Z,100949.69
2019-05-10T22:34:12.657Z,100954.13
2019-05-10T22:36:45.236Z,100951.33
2019-05-10T22:39:17.525Z,100952.48
2019-05-10T22:41:52.856Z,100954.70
2019-05-10T22:44:23.746Z,100958.69
2019-05-10T22:46:55.922Z,100958.33
2019-05-10T22:49:28.171Z,100955.30
2019-05-10T22:52:00.433Z,100953.66
2019-05-10T22:54:32.454Z,100953.17
2019-05-10T22:57:05.085Z,100953.89
2019-05-10T22:59:37.445Z,100949.20
2019-05-10T23:02:09.617Z,100946.73
2019-05-10T23:04:42.108Z,100943.48
2019-05-10T23:07:14.484Z,100941.36
2019-05-10T23:09:46.737Z,100942.52
2019-05-10T23:12:18.805Z,100939.83
2019-05-10T23:14:51.014Z,100928.95
2019-05-10T23:17:23.518Z,100932.70
2019-05-10T23:19:56.047Z,100935.59
2019-05-10T23:22:28.267Z,100936.19
2019-05-10T23:25:00.860Z,100934.55
2019-05-10T23:27:33.249Z,100934.30
2019-05-10T23:30:05.826Z,100938.50
2019-05-10T23:32:38.224Z,100936.98
2019-05-10T23:35:10.446Z,100933.94
2019-05-10T23:37:42.651Z,100939.55
2019-05-10T23:40:16.376Z,100938.14
2019-05-10T23:42:48.638Z,100929.26
2019-05-10T23:45:20.955Z,100933.45
2019-05-10T23:47:53.181Z,100928.81
2019-05-10T23:50:25.453Z,100930.77
2019-05-10T23:52:57.543Z,100929.97
2019-05-10T23:55:29.714Z,100933.93
2019-05-10T23:58:02.002Z,100932.53
